Time,TemperatureF,DewpointF,PressureIn,WindDirection,WindDirectionDegrees,WindSpeedMPH,WindSpeedGustMPH,Humidity,HourlyPrecipIn,Conditions,Clouds,dailyrainin,SoftwareType,DateUTC
2013-01-26 00:01:00,35.0,30.0,-100.00,East,88,10.0,10.0,82,-99.99,,,-99.99,,2013-01-26 07:01:00,
2013-01-26 00:11:00,35.0,30.0,-100.00,East,88,10.0,10.0,82,-99.99,,,-99.99,,2013-01-26 07:11:00,
2013-01-26 00:21:00,36.0,30.0,-100.00,ESE,120,7.0,10.0,79,-99.99,,,-99.99,,2013-01-26 07:21:00,
2013-01-26 00:33:00,36.0,30.0,-100.00,ESE,120,7.0,10.0,79,-99.99,,,-99.99,,2013-01-26 07:33:00,
2013-01-26 00:41:00,36.0,30.0,-100.00,ESE,120,7.0,10.0,79,-99.99,,,-99.99,,2013-01-26 07:41:00,
2013-01-26 00:51:00,36.0,30.0,-100.00,SE,129,6.0,8.0,79,-99.99,,,-99.99,,2013-01-26 07:51:00,
2013-01-26 01:02:00,36.0,30.0,-100.00,SE,142,5.0,7.0,79,-99.99,,,-99.99,,2013-01-26 08:02:00,
2013-01-26 01:11:00,36.0,30.0,-100.00,SE,142,5.0,7.0,79,-99.99,,,-99.99,,2013-01-26 08:11:00,
2013-01-26 01:21:00,36.0,30.0,-100.00,SE,142,5.0,7.0,79,-99.99,,,-99.99,,2013-01-26 08:21:00,
2013-01-26 01:31:00,36.0,30.0,-100.00,SSE,157,7.0,11.0,78,-99.99,,,-99.99,,2013-01-26 08:31:00,
2013-01-26 01:42:00,36.0,30.0,-100.00,SSE,157,7.0,11.0,78,-99.99,,,-99.99,,2013-01-26 08:42:00,
2013-01-26 01:53:00,36.0,30.0,-100.00,SSE,150,6.0,11.0,79,-99.99,,,-99.99,,2013-01-26 08:53:00,
2013-01-26 02:02:00,36.0,30.0,-100.00,SSE,150,6.0,11.0,79,-99.99,,,-99.99,,2013-01-26 09:02:00,
2013-01-26 02:11:00,36.0,30.0,-100.00,SSE,157,14.0,17.0,78,-99.99,,,-99.99,,2013-01-26 09:11:00,
2013-01-26 02:22:00,36.0,30.0,-100.00,SSE,157,14.0,17.0,78,-99.99,,,-99.99,,2013-01-26 09:22:00,
2013-01-26 02:31:00,36.0,30.0,-100.00,South,172,13.0,20.0,77,-99.99,,,-99.99,,2013-01-26 09:31:00,
2013-01-26 02:42:00,36.0,31.0,-100.00,South,180,12.0,16.0,80,-99.99,,,-99.99,,2013-01-26 09:42:00,
2013-01-26 02:51:00,36.0,31.0,-100.00,South,180,12.0,16.0,80,-99.99,,,-99.99,,2013-01-26 09:51:00,
2013-01-26 03:01:00,36.0,31.0,-100.00,South,180,12.0,16.0,80,-99.99,,,-99.99,,2013-01-26 10:01:00,
2013-01-26 03:11:00,36.0,31.0,-100.00,South,179,9.0,13.0,81,-99.99,,,-99.99,,2013-01-26 10:11:00,
2013-01-26 03:21:00,36.0,31.0,-100.00,South,179,9.0,13.0,81,-99.99,,,-99.99,,2013-01-26 10:21:00,
2013-01-26 03:31:00,36.0,31.0,-100.00,South,179,9.0,13.0,81,-99.99,,,-99.99,,2013-01-26 10:31:00,
2013-01-26 03:42:00,36.0,31.0,-100.00,ESE,106,7.0,10.0,82,-99.99,,,-99.99,,2013-01-26 10:42:00,
2013-01-26 03:52:00,36.0,31.0,-100.00,ESE,107,8.0,10.0,81,-99.99,,,-99.99,,2013-01-26 10:52:00,
2013-01-26 04:01:00,36.0,31.0,-100.00,ESE,107,8.0,10.0,81,-99.99,,,-99.99,,2013-01-26 11:01:00,
2013-01-26 04:12:00,35.0,30.0,-100.00,SSE,150,10.0,11.0,82,-99.99,,,-99.99,,2013-01-26 11:12:00,
2013-01-26 04:21:00,35.0,30.0,-100.00,SSE,150,10.0,11.0,82,-99.99,,,-99.99,,2013-01-26 11:21:00,
2013-01-26 04:32:00,35.0,30.0,-100.00,SSE,150,10.0,11.0,82,-99.99,,,-99.99,,2013-01-26 11:32:00,
2013-01-26 04:42:00,35.0,31.0,-100.00,SSE,155,9.0,10.0,83,-99.99,,,-99.99,,2013-01-26 11:42:00,
2013-01-26 04:52:00,35.0,31.0,-100.00,SE,145,8.0,9.0,84,-99.99,,,-99.99,,2013-01-26 11:52:00,
2013-01-26 05:02:00,35.0,31.0,-100.00,SE,145,8.0,9.0,84,-99.99,,,-99.99,,2013-01-26 12:02:00,
2013-01-26 05:12:00,35.0,30.0,-100.00,SE,137,8.0,8.0,85,-99.99,,,-99.99,,2013-01-26 12:12:00,
2013-01-26 05:22:00,35.0,30.0,-100.00,SE,137,8.0,8.0,85,-99.99,,,-99.99,,2013-01-26 12:22:00,
2013-01-26 05:33:00,34.0,31.0,-100.00,SE,142,8.0,8.0,85,-99.99,,,-99.99,,2013-01-26 12:33:00,
2013-01-26 05:42:00,34.0,31.0,-100.00,SE,142,8.0,8.0,85,-99.99,,,-99.99,,2013-01-26 12:42:00,
2013-01-26 05:52:00,34.0,31.0,-100.00,SE,142,8.0,8.0,85,-99.99,,,-99.99,,2013-01-26 12:52:00,
2013-01-26 06:03:00,34.0,30.0,-100.00,SE,133,8.0,10.0,85,-99.99,,,-99.99,,2013-01-26 13:03:00,
2013-01-26 06:12:00,34.0,30.0,-100.00,SE,133,8.0,10.0,85,-99.99,,,-99.99,,2013-01-26 13:12:00,
2013-01-26 06:22:00,34.0,30.0,-100.00,SE,133,8.0,10.0,85,-99.99,,,-99.99,,2013-01-26 13:22:00,
2013-01-26 06:32:00,35.0,30.0,-100.00,SSE,154,9.0,11.0,83,-99.99,,,-99.99,,2013-01-26 13:32:00,
2013-01-26 06:42:00,35.0,30.0,-100.00,SSE,154,9.0,11.0,83,-99.99,,,-99.99,,2013-01-26 13:42:00,
2013-01-26 06:52:00,35.0,30.0,-100.00,SSE,154,6.0,6.0,81,-99.99,,,-99.99,,2013-01-26 13:52:00,
2013-01-26 07:02:00,35.0,30.0,-100.00,SSE,154,6.0,6.0,81,-99.99,,,-99.99,,2013-01-26 14:02:00,
2013-01-26 07:11:00,34.0,29.0,-100.00,ESE,123,8.0,9.0,82,-99.99,,,-99.99,,2013-01-26 14:11:00,
2013-01-26 07:21:00,34.0,29.0,-100.00,ESE,123,8.0,9.0,82,-99.99,,,-99.99,,2013-01-26 14:21:00,
2013-01-26 07:31:00,35.0,29.0,-100.00,SE,139,6.0,8.0,81,-99.99,,,-99.99,,2013-01-26 14:31:00,
2013-01-26 07:42:00,35.0,29.0,-100.00,SE,131,8.0,8.0,80,-99.99,,,-99.99,,2013-01-26 14:42:00,
2013-01-26 07:52:00,35.0,29.0,-100.00,SE,131,8.0,8.0,80,-99.99,,,-99.99,,2013-01-26 14:52:00,
2013-01-26 08:02:00,35.0,29.0,-100.00,SE,130,6.0,7.0,78,-99.99,,,-99.99,,2013-01-26 15:02:00,
2013-01-26 08:12:00,35.0,29.0,-100.00,SE,130,6.0,7.0,78,-99.99,,,-99.99,,2013-01-26 15:12:00,
2013-01-26 08:21:00,35.0,29.0,-100.00,SE,146,7.0,9.0,77,-99.99,,,-99.99,,2013-01-26 15:21:00,
2013-01-26 08:32:00,35.0,29.0,-100.00,SE,146,7.0,9.0,77,-99.99,,,-99.99,,2013-01-26 15:32:00,
2013-01-26 08:42:00,35.0,29.0,-100.00,SE,143,7.0,9.0,78,-99.99,,,-99.99,,2013-01-26 15:42:00,
2013-01-26 08:52:00,35.0,29.0,-100.00,SE,143,7.0,9.0,78,-99.99,,,-99.99,,2013-01-26 15:52:00,
2013-01-26 09:01:00,35.0,29.0,-100.00,SE,131,6.0,8.0,78,-99.99,,,-99.99,,2013-01-26 16:01:00,
2013-01-26 09:12:00,35.0,29.0,-100.00,SE,131,6.0,8.0,78,-99.99,,,-99.99,,2013-01-26 16:12:00,
2013-01-26 09:21:00,35.0,29.0,-100.00,SE,131,6.0,8.0,78,-99.99,,,-99.99,,2013-01-26 16:21:00,
2013-01-26 09:32:00,36.0,29.0,-100.00,SE,124,7.0,10.0,74,-99.99,,,-99.99,,2013-01-26 16:32:00,
2013-01-26 09:41:00,36.0,29.0,-100.00,SE,124,7.0,10.0,74,-99.99,,,-99.99,,2013-01-26 16:41:00,
2013-01-26 09:53:00,38.0,29.0,-100.00,SSE,156,7.0,10.0,71,-99.99,,,-99.99,,2013-01-26 16:53:00,
2013-01-26 10:03:00,38.0,29.0,-100.00,SSE,156,7.0,10.0,71,-99.99,,,-99.99,,2013-01-26 17:03:00,
2013-01-26 10:12:00,38.0,29.0,-100.00,SE,140,10.0,11.0,69,-99.99,,,-99.99,,2013-01-26 17:12:00,
2013-01-26 10:22:00,38.0,29.0,-100.00,SE,140,10.0,11.0,69,-99.99,,,-99.99,,2013-01-26 17:22:00,
2013-01-26 10:32:00,39.0,30.0,-100.00,SE,136,8.0,10.0,69,-99.99,,,-99.99,,2013-01-26 17:32:00,
2013-01-26 11:02:00,40.0,30.0,-100.00,SSE,162,9.0,11.0,67,-99.99,,,-99.99,,2013-01-26 18:02:00,
2013-01-26 11:22:00,41.0,30.0,-100.00,South,183,11.0,11.0,64,-99.99,,,-99.99,,2013-01-26 18:22:00,
2013-01-26 11:32:00,41.0,30.0,-100.00,South,183,11.0,11.0,64,-99.99,,,-99.99,,2013-01-26 18:32:00,
2013-01-26 11:42:00,41.0,30.0,-100.00,SSW,195,8.0,10.0,64,-99.99,,,-99.99,,2013-01-26 18:42:00,
2013-01-26 12:03:00,42.0,30.0,-100.00,South,190,8.0,10.0,62,-99.99,,,-99.99,,2013-01-26 19:03:00,
2013-01-26 12:11:00,42.0,30.0,-100.00,South,190,8.0,10.0,62,-99.99,,,-99.99,,2013-01-26 19:11:00,
2013-01-26 12:22:00,42.0,30.0,-100.00,South,190,8.0,10.0,62,-99.99,,,-99.99,,2013-01-26 19:22:00,
2013-01-26 12:32:00,42.0,30.0,-100.00,South,190,8.0,10.0,62,-99.99,,,-99.99,,2013-01-26 19:32:00,
2013-01-26 12:42:00,41.0,29.0,-100.00,SSW,198,9.0,11.0,63,-99.99,,,-99.99,,2013-01-26 19:42:00,
2013-01-26 12:52:00,41.0,30.0,-100.00,SSW,197,7.0,9.0,64,-99.99,,,-99.99,,2013-01-26 19:52:00,
2013-01-26 13:02:00,41.0,29.0,-100.00,SSW,206,7.0,7.0,63,-99.99,,,-99.99,,2013-01-26 20:02:00,
2013-01-26 13:11:00,41.0,29.0,-100.00,SSW,206,7.0,7.0,63,-99.99,,,-99.99,,2013-01-26 20:11:00,
2013-01-26 13:21:00,41.0,29.0,-100.00,SSW,201,8.0,8.0,62,-99.99,,,-99.99,,2013-01-26 20:21:00,
2013-01-26 13:32:00,41.0,29.0,-100.00,SSW,201,8.0,8.0,62,-99.99,,,-99.99,,2013-01-26 20:32:00,
2013-01-26 13:41:00,41.0,30.0,-100.00,South,171,7.0,10.0,63,-99.99,,,-99.99,,2013-01-26 20:41:00,
2013-01-26 13:52:00,41.0,30.0,-100.00,South,171,7.0,10.0,63,-99.99,,,-99.99,,2013-01-26 20:52:00,
2013-01-26 14:02:00,41.0,30.0,-100.00,South,171,7.0,10.0,63,-99.99,,,-99.99,,2013-01-26 21:02:00,
2013-01-26 14:12:00,41.0,29.0,-100.00,SSW,204,6.0,7.0,63,-99.99,,,-99.99,,2013-01-26 21:12:00,
2013-01-26 14:22:00,41.0,29.0,-100.00,SSW,204,6.0,7.0,63,-99.99,,,-99.99,,2013-01-26 21:22:00,
2013-01-26 14:32:00,40.0,28.0,-100.00,SSW,195,7.0,7.0,61,-99.99,,,-99.99,,2013-01-26 21:32:00,
2013-01-26 14:42:00,40.0,28.0,-100.00,SSW,195,7.0,7.0,61,-99.99,,,-99.99,,2013-01-26 21:42:00,
2013-01-26 14:51:00,40.0,28.0,-100.00,SSW,193,7.0,8.0,61,-99.99,,,-99.99,,2013-01-26 21:51:00,
2013-01-26 15:01:00,40.0,28.0,-100.00,SSW,193,7.0,8.0,61,-99.99,,,-99.99,,2013-01-26 22:01:00,
2013-01-26 15:11:00,41.0,29.0,-100.00,SSW,197,6.0,7.0,62,-99.99,,,-99.99,,2013-01-26 22:11:00,
2013-01-26 15:21:00,41.0,29.0,-100.00,SSW,197,6.0,7.0,62,-99.99,,,-99.99,,2013-01-26 22:21:00,
2013-01-26 15:31:00,41.0,29.0,-100.00,SSE,157,5.0,5.0,61,-99.99,,,-99.99,,2013-01-26 22:31:00,
2013-01-26 15:41:00,41.0,29.0,-100.00,SSE,157,5.0,5.0,61,-99.99,,,-99.99,,2013-01-26 22:41:00,
2013-01-26 15:51:00,41.0,29.0,-100.00,South,173,9.0,9.0,63,-99.99,,,-99.99,,2013-01-26 22:51:00,
2013-01-26 16:01:00,41.0,29.0,-100.00,South,173,9.0,9.0,63,-99.99,,,-99.99,,2013-01-26 23:01:00,
2013-01-26 16:11:00,40.0,30.0,-100.00,SSE,162,10.0,11.0,67,-99.99,,,-99.99,,2013-01-26 23:11:00,
2013-01-26 16:21:00,40.0,30.0,-100.00,SSE,162,10.0,11.0,67,-99.99,,,-99.99,,2013-01-26 23:21:00,
2013-01-26 16:32:00,39.0,31.0,-100.00,SSE,161,8.0,10.0,71,-99.99,,,-99.99,,2013-01-26 23:32:00,
2013-01-26 16:41:00,39.0,31.0,-100.00,SSE,161,8.0,10.0,71,-99.99,,,-99.99,,2013-01-26 23:41:00,
2013-01-26 16:52:00,39.0,31.0,-100.00,SSE,167,7.0,9.0,73,-99.99,,,-99.99,,2013-01-26 23:52:00,
2013-01-26 17:02:00,39.0,31.0,-100.00,SSE,167,7.0,9.0,73,-99.99,,,-99.99,,2013-01-27 00:02:00,
2013-01-26 17:11:00,38.0,31.0,-100.00,SSE,162,5.0,6.0,75,-99.99,,,-99.99,,2013-01-27 00:11:00,
2013-01-26 17:21:00,38.0,31.0,-100.00,SSE,162,5.0,6.0,75,-99.99,,,-99.99,,2013-01-27 00:21:00,
2013-01-26 17:31:00,38.0,31.0,-100.00,SSE,162,5.0,6.0,75,-99.99,,,-99.99,,2013-01-27 00:31:00,
2013-01-26 17:41:00,37.0,31.0,-100.00,South,181,5.0,8.0,79,-99.99,,,-99.99,,2013-01-27 00:41:00,
2013-01-26 17:51:00,36.0,32.0,-100.00,South,169,5.0,6.0,83,-99.99,,,-99.99,,2013-01-27 00:51:00,
2013-01-26 18:01:00,36.0,32.0,-100.00,South,169,5.0,6.0,83,-99.99,,,-99.99,,2013-01-27 01:01:00,
2013-01-26 18:11:00,36.0,32.0,-100.00,South,169,5.0,6.0,83,-99.99,,,-99.99,,2013-01-27 01:11:00,
2013-01-26 18:22:00,36.0,32.0,-100.00,SSE,157,8.0,8.0,86,-99.99,,,-99.99,,2013-01-27 01:22:00,
2013-01-26 18:32:00,35.0,32.0,-100.00,SSE,152,5.0,8.0,88,-99.99,,,-99.99,,2013-01-27 01:32:00,
2013-01-26 18:41:00,35.0,32.0,-100.00,SSE,152,5.0,8.0,88,-99.99,,,-99.99,,2013-01-27 01:41:00,
2013-01-26 18:51:00,35.0,32.0,-100.00,SSE,152,5.0,8.0,88,-99.99,,,-99.99,,2013-01-27 01:51:00,
2013-01-26 19:01:00,35.0,32.0,-100.00,WNW,290,2.0,2.0,88,-99.99,,,-99.99,,2013-01-27 02:01:00,
2013-01-26 19:11:00,35.0,32.0,-100.00,WNW,290,2.0,2.0,88,-99.99,,,-99.99,,2013-01-27 02:11:00,
2013-01-26 19:21:00,35.0,32.0,-100.00,WNW,290,2.0,2.0,88,-99.99,,,-99.99,,2013-01-27 02:21:00,
2013-01-26 19:31:00,34.0,32.0,-100.00,SSW,205,5.0,7.0,90,-99.99,,,-99.99,,2013-01-27 02:31:00,
2013-01-26 19:41:00,34.0,32.0,-100.00,SSW,205,5.0,7.0,90,-99.99,,,-99.99,,2013-01-27 02:41:00,
2013-01-26 19:52:00,34.0,32.0,-100.00,SSE,165,3.0,5.0,91,-99.99,,,-99.99,,2013-01-27 02:52:00,
2013-01-26 20:01:00,34.0,31.0,-100.00,SSW,203,0.0,3.0,91,-99.99,,,-99.99,,2013-01-27 03:01:00,
2013-01-26 20:11:00,34.0,31.0,-100.00,SSW,203,0.0,3.0,91,-99.99,,,-99.99,,2013-01-27 03:11:00,
2013-01-26 20:21:00,34.0,32.0,-100.00,NW,326,3.0,6.0,93,-99.99,,,-99.99,,2013-01-27 03:21:00,
2013-01-26 20:31:00,34.0,32.0,-100.00,NW,326,3.0,6.0,93,-99.99,,,-99.99,,2013-01-27 03:31:00,
2013-01-26 20:41:00,34.0,32.0,-100.00,WNW,287,1.0,4.0,93,-99.99,,,-99.99,,2013-01-27 03:41:00,
2013-01-26 20:51:00,34.0,32.0,-100.00,WNW,287,1.0,4.0,93,-99.99,,,-99.99,,2013-01-27 03:51:00,
2013-01-26 21:01:00,34.0,32.0,-100.00,WNW,287,1.0,4.0,93,-99.99,,,-99.99,,2013-01-27 04:01:00,
2013-01-26 21:11:00,34.0,32.0,-100.00,SSW,208,1.0,3.0,93,-99.99,,,-99.99,,2013-01-27 04:11:00,
2013-01-26 21:21:00,33.0,32.0,-100.00,SE,135,1.0,2.0,93,-99.99,,,-99.99,,2013-01-27 04:21:00,
2013-01-26 21:31:00,34.0,32.0,-100.00,WSW,246,3.0,4.0,93,-99.99,,,-99.99,,2013-01-27 04:31:00,
2013-01-26 21:41:00,34.0,32.0,-100.00,WSW,246,3.0,4.0,93,-99.99,,,-99.99,,2013-01-27 04:41:00,
2013-01-26 21:51:00,34.0,32.0,-100.00,WSW,246,3.0,4.0,93,-99.99,,,-99.99,,2013-01-27 04:51:00,
2013-01-26 22:03:00,33.0,32.0,-100.00,SSW,194,3.0,4.0,94,-99.99,,,-99.99,,2013-01-27 05:03:00,
2013-01-26 22:11:00,33.0,32.0,-100.00,SSW,194,3.0,4.0,94,-99.99,,,-99.99,,2013-01-27 05:11:00,
2013-01-26 22:22:00,33.0,32.0,-100.00,NNW,327,1.0,3.0,94,-99.99,,,-99.99,,2013-01-27 05:22:00,
2013-01-26 22:31:00,33.0,32.0,-100.00,NNW,327,1.0,3.0,94,-99.99,,,-99.99,,2013-01-27 05:31:00,
2013-01-26 22:40:00,33.0,32.0,-100.00,WSW,249,2.0,2.0,94,-99.99,,,-99.99,,2013-01-27 05:40:00,
2013-01-26 22:41:00,33.0,32.0,-100.00,WSW,240,4.0,5.0,94,-99.99,,,-99.99,,2013-01-27 05:41:00,
2013-01-26 22:52:00,33.0,32.0,-100.00,WSW,245,1.0,4.0,94,-99.99,,,-99.99,,2013-01-27 05:52:00,
2013-01-26 23:01:00,33.0,32.0,-100.00,WSW,249,2.0,2.0,94,-99.99,,,-99.99,,2013-01-27 06:01:00,
2013-01-26 23:11:00,33.0,32.0,-100.00,WSW,249,2.0,2.0,94,-99.99,,,-99.99,,2013-01-27 06:11:00,
2013-01-26 23:21:00,33.0,32.0,-100.00,WSW,249,2.0,2.0,94,-99.99,,,-99.99,,2013-01-27 06:21:00,
2013-01-26 23:31:00,33.0,32.0,-100.00,WSW,249,2.0,2.0,94,-99.99,,,-99.99,,2013-01-27 06:31:00,
2013-01-26 23:52:00,33.0,32.0,-100.00,ESE,108,0.0,2.0,94,-99.99,,,-99.99,,2013-01-27 06:52:00,